createdAt,value
2023-05-10T00:00:25.002Z,101037.28
2023-05-10T00:02:51.771Z,101036.44
2023-05-10T00:05:18.680Z,101026.75
2023-05-10T00:07:48.395Z,101024.09
2023-05-10T00:10:15.324Z,101028.44
2023-05-10T00:12:43.439Z,101030.09
2023-05-10T00:15:10.440Z,101016.91
2023-05-10T00:17:37.007Z,101020.41
2023-05-10T00:20:05.880Z,101024.09
2023-05-10T00:22:33.229Z,101018.75
2023-05-10T00:25:00.022Z,101019.75
2023-05-10T00:27:26.633Z,101009.91
2023-05-10T00:29:53.186Z,101017.91
2023-05-10T00:32:19.798Z,101016.09
2023-05-10T00:34:46.384Z,101023.25
2023-05-10T00:37:12.952Z,101015.25
2023-05-10T00:39:39.459Z,101024.09
2023-05-10T00:42:06.152Z,101024.25
2023-05-10T00:44:32.733Z,101024.25
2023-05-10T00:47:00.619Z,101018.06
2023-05-10T00:49:27.273Z,101015.41
2023-05-10T00:51:54.130Z,101018.06
2023-05-10T00:54:20.958Z,101018.91
2023-05-10T00:56:49.934Z,101016.41
2023-05-10T00:59:18.146Z,101021.75
2023-05-10T01:01:48.636Z,101022.75
2023-05-10T01:04:16.202Z,101022.91
2023-05-10T01:06:43.612Z,101027.41
2023-05-10T01:09:12.698Z,101023.06
2023-05-10T01:11:40.893Z,101023.06
2023-05-10T01:14:08.032Z,101031.22
2023-05-10T01:16:38.176Z,101040.09
2023-05-10T01:19:18.105Z,101031.44
2023-05-10T01:22:00.926Z,101034.41
2023-05-10T01:24:39.375Z,101035.25
2023-05-10T01:27:28.912Z,101033.06
2023-05-10T01:30:16.178Z,101026.88
2023-05-10T01:32:59.607Z,101020.88
2023-05-10T01:35:58.101Z,101021.88
2023-05-10T01:38:49.074Z,101013.69
2023-05-10T01:41:49.404Z,101020.38
2023-05-10T01:44:51.153Z,101019.72
2023-05-10T01:47:37.337Z,100999.44
2023-05-10T01:50:14.491Z,101030.56
2023-05-10T01:52:58.287Z,101032.03
2023-05-10T01:56:11.415Z,101019.50
2023-05-10T01:58:53.906Z,101019.34
2023-05-10T02:01:37.678Z,101007.94
2023-05-10T02:04:20.439Z,101006.63
2023-05-10T02:07:05.283Z,101007.59
2023-05-10T02:09:52.421Z,101011.78
2023-05-10T02:12:28.888Z,101007.75
2023-05-10T02:15:05.265Z,101009.28
2023-05-10T02:23:37.286Z,101023.78
2023-05-10T02:26:35.113Z,101020.28
2023-05-10T02:29:33.522Z,101026.28
2023-05-10T02:32:13.688Z,101011.41
2023-05-10T02:34:56.664Z,101020.91
2023-05-10T02:37:43.629Z,101030.09
2023-05-10T02:40:34.369Z,101027.59
2023-05-10T02:43:34.508Z,101020.25
2023-05-10T02:46:14.886Z,101027.44
2023-05-10T02:49:10.354Z,101040.63
2023-05-10T02:51:51.980Z,101031.09
2023-05-10T02:54:51.874Z,101029.41
2023-05-10T02:57:36.716Z,101028.41
2023-05-10T03:00:23.811Z,101040.09
2023-05-10T03:03:01.017Z,101041.94
2023-05-10T03:08:22.708Z,101046.25
2023-05-10T03:11:39.630Z,101072.81
2023-05-10T03:14:34.615Z,101065.97
2023-05-10T03:17:40.169Z,101040.19
2023-05-10T03:20:45.180Z,101046.31
2023-05-10T03:23:37.783Z,101037.16
2023-05-10T03:35:17.969Z,101046.59
2023-05-10T03:40:58.278Z,101044.91
2023-05-10T03:44:12.477Z,101061.94
2023-05-10T03:46:50.584Z,101065.09
2023-05-10T03:49:19.729Z,101073.44
2023-05-10T03:53:16.222Z,101050.84
2023-05-10T03:58:07.479Z,101058.38
2023-05-10T04:01:00.961Z,101059.38
2023-05-10T04:03:37.012Z,101074.25
2023-05-10T04:06:26.404Z,101066.53
2023-05-10T04:09:01.883Z,101058.50
2023-05-10T04:14:12.271Z,101084.44
2023-05-10T04:19:39.130Z,101065.34
2023-05-10T04:22:19.306Z,101078.75
2023-05-10T04:24:56.559Z,101078.53
2023-05-10T04:27:33.621Z,101067.66
2023-05-10T04:30:27.356Z,101067.25
2023-05-10T04:33:14.794Z,101077.63
2023-05-10T04:35:54.424Z,101072.09
2023-05-10T04:39:20.607Z,101078.63
2023-05-10T04:41:50.112Z,101079.09
2023-05-10T04:44:19.495Z,101077.06
2023-05-10T04:46:56.585Z,101086.94
2023-05-10T04:49:38.347Z,101077.34
2023-05-10T04:52:09.879Z,101094.28
2023-05-10T04:54:55.190Z,101083.81
2023-05-10T04:57:31.125Z,101108.06
2023-05-10T05:00:00.365Z,101101.03
2023-05-10T05:02:29.538Z,101118.41
2023-05-10T05:05:04.390Z,101111.03
2023-05-10T05:10:46.765Z,101112.66
2023-05-10T05:16:14.572Z,101117.34
2023-05-10T05:18:43.815Z,101128.53
2023-05-10T05:21:30.745Z,101133.94
2023-05-10T05:24:03.398Z,101119.25
2023-05-10T05:26:48.061Z,101137.38
2023-05-10T05:29:33.131Z,101139.53
2023-05-10T05:32:02.830Z,101125.03
2023-05-10T05:37:28.067Z,101132.88
2023-05-10T05:40:12.491Z,101134.53
2023-05-10T05:42:54.960Z,101130.03
2023-05-10T05:45:27.786Z,101156.31
2023-05-10T05:48:13.916Z,101132.53
2023-05-10T05:50:46.849Z,101157.31
2023-05-10T05:53:20.978Z,101144.56
2023-05-10T05:56:40.655Z,101151.97
2023-05-10T05:59:10.172Z,101153.94
2023-05-10T06:01:46.586Z,101163.28
2023-05-10T06:04:34.286Z,101163.16
2023-05-10T06:10:46.886Z,101149.59
2023-05-10T06:13:21.007Z,101187.91
2023-05-10T06:15:50.380Z,101178.16
2023-05-10T06:18:27.865Z,101174.50
2023-05-10T06:23:48.075Z,101159.81
2023-05-10T06:29:15.894Z,101170.66
2023-05-10T06:31:57.427Z,101180.38
2023-05-10T06:40:06.424Z,101204.59
2023-05-10T06:42:33.197Z,101198.22
2023-05-10T06:44:59.756Z,101197.53
2023-05-10T06:47:26.301Z,101195.31
2023-05-10T06:49:53.026Z,101197.81
2023-05-10T06:52:19.629Z,101199.84
2023-05-10T06:54:46.240Z,101200.97
2023-05-10T06:57:23.370Z,101197.78
2023-05-10T06:59:58.026Z,101205.91
2023-05-10T07:02:24.619Z,101208.44
2023-05-10T07:04:52.905Z,101197.38
2023-05-10T07:07:20.002Z,101205.78
2023-05-10T07:09:46.839Z,101208.22
2023-05-10T07:12:15.343Z,101218.56
2023-05-10T07:14:42.766Z,101215.22
2023-05-10T07:17:09.473Z,101223.38
2023-05-10T07:19:36.415Z,101222.56
2023-05-10T07:22:03.109Z,101226.03
2023-05-10T07:24:29.664Z,101228.88
2023-05-10T07:26:56.205Z,101230.72
2023-05-10T07:29:22.781Z,101232.38
2023-05-10T07:31:49.385Z,101217.81
2023-05-10T07:34:15.978Z,101230.56
2023-05-10T07:36:42.805Z,101225.38
2023-05-10T07:39:09.569Z,101227.22
2023-05-10T07:41:36.297Z,101224.69
2023-05-10T07:44:02.842Z,101228.50
2023-05-10T07:46:29.597Z,101228.63
2023-05-10T07:48:56.570Z,101249.53
2023-05-10T07:51:23.266Z,101244.50
2023-05-10T07:53:49.846Z,101236.50
2023-05-10T07:56:28.123Z,101247.38
2023-05-10T07:58:55.366Z,101248.38
2023-05-10T08:01:22.539Z,101243.06
2023-05-10T08:03:49.775Z,101247.38
2023-05-10T08:06:16.661Z,101266.44
2023-05-10T08:08:43.353Z,101257.88
2023-05-10T08:11:10.046Z,101262.94
2023-05-10T08:13:36.632Z,101266.28
2023-05-10T08:16:03.463Z,101266.44
2023-05-10T08:18:30.193Z,101268.25
2023-05-10T08:20:56.849Z,101278.09
2023-05-10T08:23:23.489Z,101271.38
2023-05-10T08:25:50.066Z,101278.25
2023-05-10T08:28:16.714Z,101286.09
2023-05-10T08:30:43.403Z,101287.78
2023-05-10T08:33:10.067Z,101289.06
2023-05-10T08:35:36.948Z,101291.56
2023-05-10T08:38:03.555Z,101286.56
2023-05-10T08:40:30.156Z,101286.38
2023-05-10T08:43:05.723Z,101288.75
2023-05-10T08:45:34.659Z,101290.44
2023-05-10T08:48:03.030Z,101293.94
2023-05-10T08:50:31.173Z,101293.09
2023-05-10T08:53:01.276Z,101294.78
2023-05-10T08:55:28.706Z,101298.97
2023-05-10T08:57:55.863Z,101296.47
2023-05-10T09:00:24.043Z,101300.13
2023-05-10T09:02:51.399Z,101308.97
2023-05-10T09:05:18.894Z,101313.31
2023-05-10T09:07:45.947Z,101306.16
2023-05-10T09:10:14.253Z,101303.63
2023-05-10T09:12:41.435Z,101301.09
2023-05-10T09:15:10.200Z,101309.81
2023-05-10T09:17:37.586Z,101300.97
2023-05-10T09:20:05.305Z,101316.53
2023-05-10T09:22:32.668Z,101316.53
2023-05-10T09:25:06.384Z,101313.72
2023-05-10T09:27:33.259Z,101309.94
2023-05-10T09:29:59.780Z,101319.19
2023-05-10T09:32:42.602Z,101314.00
2023-05-10T09:35:15.013Z,101327.19
2023-05-10T09:37:43.977Z,101329.84
2023-05-10T09:40:16.414Z,101326.78
2023-05-10T09:42:51.873Z,101339.53
2023-05-10T09:45:18.778Z,101331.97
2023-05-10T09:47:46.996Z,101326.94
2023-05-10T09:50:13.866Z,101341.66
2023-05-10T09:52:49.301Z,101348.69
2023-05-10T09:55:17.230Z,101346.72
2023-05-10T09:57:44.174Z,101352.34
2023-05-10T10:00:11.358Z,101355.00
2023-05-10T10:02:38.123Z,101351.50
2023-05-10T10:05:07.410Z,101350.66
2023-05-10T10:07:35.195Z,101360.19
2023-05-10T10:10:01.834Z,101355.00
2023-05-10T10:12:29.001Z,101350.09
2023-05-10T10:14:57.102Z,101358.13
2023-05-10T10:17:28.714Z,101351.94
2023-05-10T10:19:56.485Z,101358.13
2023-05-10T10:22:23.073Z,101363.56
2023-05-10T10:24:51.353Z,101356.97
2023-05-10T10:27:23.610Z,101369.72
2023-05-10T10:30:27.826Z,101362.56
2023-05-10T10:33:10.200Z,101365.22
2023-05-10T10:35:44.846Z,101353.88
2023-05-10T10:38:14.061Z,101351.19
2023-05-10T10:40:41.235Z,101362.56
2023-05-10T10:43:27.021Z,101369.25
2023-05-10T10:46:18.455Z,101347.53
2023-05-10T10:48:50.811Z,101349.38
2023-05-10T10:51:17.627Z,101348.38
2023-05-10T10:53:44.750Z,101364.63
2023-05-10T10:56:16.120Z,101366.28
2023-05-10T10:58:54.711Z,101363.06
2023-05-10T11:01:21.641Z,101360.25
2023-05-10T11:04:03.684Z,101372.31
2023-05-10T11:06:34.690Z,101366.28
2023-05-10T11:09:08.222Z,101362.38
2023-05-10T11:11:36.158Z,101365.75
2023-05-10T11:14:08.036Z,101380.19
2023-05-10T11:16:45.076Z,101385.50
2023-05-10T11:19:13.538Z,101378.78
2023-05-10T11:21:47.950Z,101374.75
2023-05-10T11:24:20.119Z,101383.00
2023-05-10T11:26:47.210Z,101381.31
2023-05-10T11:29:14.895Z,101374.75
2023-05-10T11:31:48.617Z,101385.81
2023-05-10T11:34:34.341Z,101383.44
2023-05-10T11:37:01.685Z,101383.44
2023-05-10T11:39:29.705Z,101391.00
2023-05-10T11:41:56.371Z,101389.59
2023-05-10T11:44:23.180Z,101379.09
2023-05-10T11:46:50.563Z,101380.06
2023-05-10T11:49:17.306Z,101386.09
2023-05-10T11:51:44.654Z,101393.97
2023-05-10T11:54:12.621Z,101391.00
2023-05-10T11:59:26.247Z,101392.53
2023-05-10T12:01:52.967Z,101401.75
2023-05-10T12:04:20.128Z,101402.31
2023-05-10T12:06:47.641Z,101400.06
2023-05-10T12:09:15.760Z,101404.22
2023-05-10T12:11:44.243Z,101396.16
2023-05-10T12:14:11.668Z,101410.53
2023-05-10T12:16:38.260Z,101408.91
2023-05-10T12:19:05.008Z,101415.88
2023-05-10T12:21:31.918Z,101407.50
2023-05-10T12:24:04.040Z,101417.56
2023-05-10T12:26:30.934Z,101409.72
2023-05-10T12:29:13.807Z,101409.72
2023-05-10T12:31:58.351Z,101414.75
2023-05-10T12:34:26.221Z,101417.28
2023-05-10T12:36:56.815Z,101416.13
2023-05-10T12:39:23.563Z,101419.66
2023-05-10T12:41:50.358Z,101416.13
2023-05-10T12:44:16.998Z,101413.63
2023-05-10T12:46:43.580Z,101411.50
2023-05-10T12:49:10.195Z,101406.16
2023-05-10T12:51:36.809Z,101415.84
2023-05-10T12:54:04.022Z,101407.84
2023-05-10T12:56:30.752Z,101408.66
2023-05-10T12:58:57.318Z,101421.69
2023-05-10T13:01:23.938Z,101415.69
2023-05-10T13:03:51.516Z,101411.34
2023-05-10T13:06:18.105Z,101414.69
2023-05-10T13:08:44.671Z,101414.69
2023-05-10T13:11:11.284Z,101420.03
2023-05-10T13:13:37.854Z,101426.59
2023-05-10T13:16:04.908Z,101418.19
2023-05-10T13:18:31.785Z,101429.41
2023-05-10T13:20:58.439Z,101424.06
2023-05-10T13:23:25.053Z,101431.91
2023-05-10T13:25:51.618Z,101434.59
2023-05-10T13:28:18.141Z,101434.59
2023-05-10T13:30:44.728Z,101442.16
2023-05-10T13:33:11.380Z,101450.16
2023-05-10T13:35:38.081Z,101438.78
2023-05-10T13:38:04.780Z,101441.84
2023-05-10T13:40:31.368Z,101435.81
2023-05-10T13:42:57.952Z,101449.03
2023-05-10T13:45:24.507Z,101445.53
2023-05-10T13:47:51.140Z,101439.34
2023-05-10T13:50:18.010Z,101442.00
2023-05-10T13:52:44.592Z,101437.94
2023-05-10T13:55:13.412Z,101446.66
2023-05-10T13:57:40.066Z,101441.47
2023-05-10T14:00:07.381Z,101447.66
2023-05-10T14:02:34.028Z,101436.41
2023-05-10T14:05:01.166Z,101431.22
2023-05-10T14:07:27.722Z,101434.19
2023-05-10T14:09:54.249Z,101446.94
2023-05-10T14:12:20.771Z,101435.72
2023-05-10T14:14:47.361Z,101440.78
2023-05-10T14:17:13.936Z,101446.66
2023-05-10T14:19:40.521Z,101445.81
2023-05-10T14:22:07.298Z,101440.47
2023-05-10T14:24:33.959Z,101443.00
2023-05-10T14:27:01.320Z,101448.34
2023-05-10T14:29:28.310Z,101441.03
2023-05-10T14:31:54.919Z,101442.16
2023-05-10T14:34:21.729Z,101451.16
2023-05-10T14:36:48.397Z,101439.78
2023-05-10T14:39:15.001Z,101447.34
2023-05-10T14:41:45.544Z,101433.75
2023-05-10T14:44:12.250Z,101440.19
2023-05-10T14:46:39.552Z,101443.00
2023-05-10T14:49:06.378Z,101439.50
2023-05-10T14:51:33.048Z,101449.31
2023-05-10T14:53:59.792Z,101457.19
2023-05-10T14:56:27.109Z,101448.47
2023-05-10T14:58:53.743Z,101453.69
2023-05-10T15:01:20.907Z,101449.47
2023-05-10T15:03:47.879Z,101454.13
2023-05-10T15:06:16.982Z,101466.88
2023-05-10T15:08:43.597Z,101466.47
2023-05-10T15:11:10.318Z,101461.53
2023-05-10T15:13:36.957Z,101470.53
2023-05-10T15:16:03.657Z,101476.56
2023-05-10T15:18:30.357Z,101472.22
2023-05-10T15:20:56.895Z,101472.50
2023-05-10T15:23:23.887Z,101473.50
2023-05-10T15:25:53.232Z,101479.38
2023-05-10T15:28:19.754Z,101483.88
2023-05-10T15:30:46.290Z,101476.88
2023-05-10T15:33:12.808Z,101475.88
2023-05-10T15:35:40.541Z,101483.03
2023-05-10T15:38:07.106Z,101476.88
2023-05-10T15:40:33.671Z,101475.03
2023-05-10T15:43:00.203Z,101481.06
2023-05-10T15:45:27.525Z,101484.88
2023-05-10T15:47:54.210Z,101485.56
2023-05-10T15:50:20.779Z,101490.44
2023-05-10T15:52:47.550Z,101502.22
2023-05-10T15:55:14.468Z,101499.69
2023-05-10T15:57:42.506Z,101503.03
2023-05-10T16:00:13.565Z,101492.81
2023-05-10T16:02:41.446Z,101496.03
2023-05-10T16:05:09.599Z,101498.53
2023-05-10T16:07:36.183Z,101487.75
2023-05-10T16:10:04.206Z,101492.50
2023-05-10T16:12:31.479Z,101496.31
2023-05-10T16:14:58.197Z,101496.16
2023-05-10T16:17:24.947Z,101493.50
2023-05-10T16:19:51.582Z,101491.66
2023-05-10T16:22:18.192Z,101499.69
2023-05-10T16:24:44.870Z,101503.41
2023-05-10T16:27:13.236Z,101490.22
2023-05-10T16:29:39.859Z,101501.81
2023-05-10T16:32:07.074Z,101501.69
2023-05-10T16:34:33.610Z,101509.53
2023-05-10T16:37:00.205Z,101491.16
2023-05-10T16:39:26.781Z,101502.88
2023-05-10T16:41:53.321Z,101508.22
2023-05-10T16:44:20.844Z,101507.94
2023-05-10T16:46:48.821Z,101508.63
2023-05-10T16:49:15.537Z,101507.63
2023-05-10T16:51:42.295Z,101498.09
2023-05-10T16:54:08.835Z,101514.50
2023-05-10T16:56:35.361Z,101507.63
2023-05-10T16:59:01.961Z,101511.84
2023-05-10T17:01:28.792Z,101518.69
2023-05-10T17:03:55.679Z,101515.00
2023-05-10T17:06:22.282Z,101519.38
2023-05-10T17:08:48.847Z,101524.41
2023-05-10T17:11:15.508Z,101523.72
2023-05-10T17:13:42.106Z,101526.09
2023-05-10T17:16:08.826Z,101526.09
2023-05-10T17:18:35.487Z,101525.94
2023-05-10T17:21:02.121Z,101524.94
2023-05-10T17:23:29.186Z,101526.78
2023-05-10T17:25:56.012Z,101531.03
2023-05-10T17:28:22.568Z,101531.69
2023-05-10T17:30:55.810Z,101523.66
2023-05-10T17:33:22.389Z,101522.28
2023-05-10T17:35:49.091Z,101532.53
2023-05-10T17:38:15.703Z,101535.19
2023-05-10T17:40:42.562Z,101539.69
2023-05-10T17:43:09.169Z,101537.22
2023-05-10T17:45:36.287Z,101538.03
2023-05-10T17:48:03.412Z,101544.88
2023-05-10T17:50:30.030Z,101547.91
2023-05-10T17:52:56.599Z,101548.84
2023-05-10T17:55:23.151Z,101551.53
2023-05-10T17:57:51.819Z,101555.19
2023-05-10T18:00:18.850Z,101548.00
2023-05-10T18:02:45.597Z,101565.63
2023-05-10T18:05:12.252Z,101566.59
2023-05-10T18:07:39.967Z,101571.94
2023-05-10T18:10:07.167Z,101563.22
2023-05-10T18:12:33.818Z,101571.09
2023-05-10T18:15:00.647Z,101572.22
2023-05-10T18:17:27.815Z,101566.72
2023-05-10T18:19:54.401Z,101572.91
2023-05-10T18:22:21.276Z,101570.22
2023-05-10T18:24:48.060Z,101571.38
2023-05-10T18:27:14.739Z,101566.03
2023-05-10T18:29:41.307Z,101567.56
2023-05-10T18:32:07.922Z,101568.69
2023-05-10T18:34:34.491Z,101565.34
2023-05-10T18:37:03.661Z,101570.69
2023-05-10T18:39:30.247Z,101573.19
2023-05-10T18:41:56.874Z,101574.50
2023-05-10T18:44:26.333Z,101573.66
2023-05-10T18:46:54.208Z,101572.50
2023-05-10T18:49:20.828Z,101570.97
2023-05-10T18:51:47.416Z,101577.00
2023-05-10T18:54:14.955Z,101582.34
2023-05-10T18:56:47.420Z,101578.69
2023-05-10T18:59:14.347Z,101580.53
2023-05-10T19:01:41.770Z,101584.34
2023-05-10T19:04:11.301Z,101583.34
2023-05-10T19:06:38.035Z,101587.00
2023-05-10T19:09:04.805Z,101590.22
2023-05-10T19:11:34.031Z,101587.16
2023-05-10T19:14:01.650Z,101593.88
2023-05-10T19:16:29.786Z,101600.06
2023-05-10T19:18:56.965Z,101594.88
2023-05-10T19:21:24.723Z,101593.34
2023-05-10T19:23:52.111Z,101604.56
2023-05-10T19:26:18.683Z,101601.91
2023-05-10T19:28:45.618Z,101603.59
2023-05-10T19:31:12.253Z,101607.25
2023-05-10T19:33:39.055Z,101612.59
2023-05-10T19:36:05.901Z,101614.41
2023-05-10T19:38:33.658Z,101619.75
2023-05-10T19:41:00.494Z,101616.53
2023-05-10T19:43:33.331Z,101619.06
2023-05-10T19:46:04.141Z,101613.03
2023-05-10T19:48:31.281Z,101614.72
2023-05-10T19:51:02.694Z,101620.91
2023-05-10T19:53:29.846Z,101632.44
2023-05-10T19:55:56.567Z,101631.72
2023-05-10T19:58:23.596Z,101629.91
2023-05-10T20:00:50.663Z,101640.44
2023-05-10T20:03:17.286Z,101640.59
2023-05-10T20:05:43.847Z,101634.56
2023-05-10T20:08:10.621Z,101645.94
2023-05-10T20:10:37.179Z,101633.91
2023-05-10T20:13:03.712Z,101637.22
2023-05-10T20:15:30.374Z,101644.25
2023-05-10T20:17:57.052Z,101634.56
2023-05-10T20:20:23.760Z,101632.06
2023-05-10T20:22:50.863Z,101635.41
2023-05-10T20:25:18.614Z,101639.75
2023-05-10T20:27:45.339Z,101633.91
2023-05-10T20:30:12.248Z,101635.56
2023-05-10T20:32:39.323Z,101639.25
2023-05-10T20:35:07.201Z,101629.97
2023-05-10T20:37:34.014Z,101642.91
2023-05-10T20:40:00.910Z,101645.88
2023-05-10T20:42:27.504Z,101644.47
2023-05-10T20:44:54.439Z,101649.81
2023-05-10T20:47:23.320Z,101639.03
2023-05-10T20:49:49.989Z,101646.63
2023-05-10T20:52:16.868Z,101642.41
2023-05-10T20:54:43.389Z,101642.69
2023-05-10T20:57:12.626Z,101653.94
2023-05-10T20:59:39.269Z,101653.09
2023-05-10T21:02:05.946Z,101650.44
2023-05-10T21:04:32.690Z,101658.59
2023-05-10T21:06:59.347Z,101649.72
2023-05-10T21:09:25.916Z,101655.63
2023-05-10T21:11:52.573Z,101660.97
2023-05-10T21:14:19.283Z,101658.59
2023-05-10T21:16:45.902Z,101647.06
2023-05-10T21:19:12.499Z,101648.03
2023-05-10T21:21:39.052Z,101654.22
2023-05-10T21:24:05.969Z,101658.72
2023-05-10T21:26:32.581Z,101662.09
2023-05-10T21:28:59.389Z,101650.72
2023-05-10T21:31:26.122Z,101648.03
2023-05-10T21:33:52.763Z,101643.53
2023-05-10T21:36:19.342Z,101643.69
2023-05-10T21:38:46.667Z,101652.41
2023-05-10T21:41:13.257Z,101650.84
2023-05-10T21:43:39.854Z,101657.88
2023-05-10T21:46:07.427Z,101644.97
2023-05-10T21:48:34.082Z,101643.84
2023-05-10T21:51:01.688Z,101652.69
2023-05-10T21:53:28.866Z,101647.50
2023-05-10T21:55:56.355Z,101645.94
2023-05-10T21:58:23.190Z,101650.44
2023-05-10T22:00:49.873Z,101653.97
2023-05-10T22:03:16.643Z,101650.44
2023-05-10T22:05:43.318Z,101650.63
2023-05-10T22:08:09.892Z,101654.94
2023-05-10T22:10:36.499Z,101647.97
2023-05-10T22:13:03.250Z,101651.75
2023-05-10T22:15:31.204Z,101660.47
2023-05-10T22:17:57.983Z,101650.91
2023-05-10T22:20:24.548Z,101651.75
2023-05-10T22:22:51.275Z,101651.75
2023-05-10T22:25:18.029Z,101647.56
2023-05-10T22:27:44.570Z,101655.28
2023-05-10T22:30:11.562Z,101657.09
2023-05-10T22:32:38.222Z,101662.44
2023-05-10T22:35:05.164Z,101654.28
2023-05-10T22:37:31.733Z,101660.47
2023-05-10T22:39:58.242Z,101662.44
2023-05-10T22:42:24.830Z,101657.94
2023-05-10T22:44:51.383Z,101648.41
2023-05-10T22:47:17.993Z,101659.63
2023-05-10T22:49:44.521Z,101646.41
2023-05-10T22:52:11.293Z,101648.09
2023-05-10T22:54:37.870Z,101659.91
2023-05-10T22:57:04.587Z,101660.63
2023-05-10T22:59:31.443Z,101651.22
2023-05-10T23:01:58.203Z,101654.88
2023-05-10T23:04:24.872Z,101666.25
2023-05-10T23:06:51.514Z,101666.25
2023-05-10T23:09:18.266Z,101667.94
2023-05-10T23:11:44.828Z,101668.91
2023-05-10T23:14:11.878Z,101663.72
2023-05-10T23:16:38.491Z,101669.75
2023-05-10T23:19:05.280Z,101669.91
2023-05-10T23:21:32.307Z,101666.38
2023-05-10T23:23:59.122Z,101672.44
2023-05-10T23:26:25.731Z,101677.78
2023-05-10T23:28:52.364Z,101670.03
2023-05-10T23:31:19.018Z,101673.69
2023-05-10T23:33:45.640Z,101671.72
2023-05-10T23:36:12.475Z,101676.22
2023-05-10T23:38:39.443Z,101670.03
2023-05-10T23:41:06.262Z,101668.34
2023-05-10T23:43:32.892Z,101675.38
2023-05-10T23:45:59.598Z,101677.91
2023-05-10T23:48:26.293Z,101671.72
2023-05-10T23:50:53.226Z,101673.56
2023-05-10T23:53:19.842Z,101679.88
2023-05-10T23:55:46.461Z,101674.41
2023-05-10T23:58:13.117Z,101672.72
